sensor_id;sensor_type;location;lat;lon;timestamp;pressure;altitude;pressure_sealevel;temperature;humidity
66385;BME280;53426;55.872;37.462;2024-02-14T00:01:17;100065.00;;;-11.14;73.09
66385;BME280;53426;55.872;37.462;2024-02-14T00:03:52;99980.38;;;-11.39;73.10
66385;BME280;53426;55.872;37.462;2024-02-14T00:06:22;99956.31;;;-11.60;72.85
66385;BME280;53426;55.872;37.462;2024-02-14T00:08:54;100041.19;;;-11.10;72.98
66385;BME280;53426;55.872;37.462;2024-02-14T00:11:22;100081.44;;;-10.92;72.87
66385;BME280;53426;55.872;37.462;2024-02-14T00:13:53;100054.09;;;-10.99;72.93
66385;BME280;53426;55.872;37.462;2024-02-14T00:16:23;100090.72;;;-11.00;72.59
66385;BME280;53426;55.872;37.462;2024-02-14T00:23:09;100131.13;;;-10.67;72.92
66385;BME280;53426;55.872;37.462;2024-02-14T00:25:50;100137.13;;;-10.65;73.20
66385;BME280;53426;55.872;37.462;2024-02-14T00:28:46;100141.34;;;-10.69;73.03
66385;BME280;53426;55.872;37.462;2024-02-14T00:31:52;100140.50;;;-10.69;72.82
66385;BME280;53426;55.872;37.462;2024-02-14T00:34:25;99972.34;;;-11.71;73.09
66385;BME280;53426;55.872;37.462;2024-02-14T00:37:22;100136.13;;;-10.81;73.05
66385;BME280;53426;55.872;37.462;2024-02-14T00:40:13;100005.59;;;-11.67;72.86
66385;BME280;53426;55.872;37.462;2024-02-14T00:42:39;100014.06;;;-11.75;72.76
66385;BME280;53426;55.872;37.462;2024-02-14T00:45:10;100143.59;;;-10.97;73.16
66385;BME280;53426;55.872;37.462;2024-02-14T00:48:46;100137.56;;;-11.01;73.23
66385;BME280;53426;55.872;37.462;2024-02-14T00:51:22;99959.44;;;-12.48;73.03
66385;BME280;53426;55.872;37.462;2024-02-14T00:53:50;99898.16;;;-12.54;72.98
66385;BME280;53426;55.872;37.462;2024-02-14T00:56:29;99875.59;;;-12.86;72.94
66385;BME280;53426;55.872;37.462;2024-02-14T00:58:55;100009.38;;;-12.05;73.07
66385;BME280;53426;55.872;37.462;2024-02-14T01:01:49;100157.94;;;-11.07;73.32
66385;BME280;53426;55.872;37.462;2024-02-14T01:04:43;100160.47;;;-11.13;73.56
66385;BME280;53426;55.872;37.462;2024-02-14T01:07:09;100050.59;;;-11.78;73.00
66385;BME280;53426;55.872;37.462;2024-02-14T01:09:35;99877.53;;;-12.71;73.27
66385;BME280;53426;55.872;37.462;2024-02-14T01:12:26;100156.19;;;-11.14;73.40
66385;BME280;53426;55.872;37.462;2024-02-14T01:14:55;100052.09;;;-11.95;73.16
66385;BME280;53426;55.872;37.462;2024-02-14T01:17:25;100107.75;;;-11.73;73.30
66385;BME280;53426;55.872;37.462;2024-02-14T01:19:57;100191.03;;;-11.21;73.23
66385;BME280;53426;55.872;37.462;2024-02-14T01:22:29;100161.16;;;-11.25;73.20
66385;BME280;53426;55.872;37.462;2024-02-14T01:25:21;99987.00;;;-12.24;73.23
66385;BME280;53426;55.872;37.462;2024-02-14T01:27:53;100054.66;;;-11.95;73.16
66385;BME280;53426;55.872;37.462;2024-02-14T01:30:27;100173.81;;;-11.32;73.26
66385;BME280;53426;55.872;37.462;2024-02-14T01:33:00;100212.97;;;-11.35;73.53
66385;BME280;53426;55.872;37.462;2024-02-14T01:35:34;100097.38;;;-11.82;73.33
66385;BME280;53426;55.872;37.462;2024-02-14T01:38:13;100132.34;;;-11.76;73.37
66385;BME280;53426;55.872;37.462;2024-02-14T01:44:08;100178.81;;;-11.41;73.24
66385;BME280;53426;55.872;37.462;2024-02-14T01:46:50;100210.31;;;-11.43;73.27
66385;BME280;53426;55.872;37.462;2024-02-14T01:49:41;100177.91;;;-11.44;72.96
66385;BME280;53426;55.872;37.462;2024-02-14T01:52:13;100208.50;;;-11.50;73.15
66385;BME280;53426;55.872;37.462;2024-02-14T01:54:43;100102.38;;;-11.90;73.30
66385;BME280;53426;55.872;37.462;2024-02-14T01:58:05;100132.69;;;-12.09;73.21
66385;BME280;53426;55.872;37.462;2024-02-14T02:00:32;100077.19;;;-12.24;73.20
66385;BME280;53426;55.872;37.462;2024-02-14T02:03:10;99896.94;;;-13.36;72.92
66385;BME280;53426;55.872;37.462;2024-02-14T02:05:41;100101.63;;;-12.37;73.40
66385;BME280;53426;55.872;37.462;2024-02-14T02:08:12;100197.25;;;-11.62;73.05
66385;BME280;53426;55.872;37.462;2024-02-14T02:10:43;100204.03;;;-11.64;73.58
66385;BME280;53426;55.872;37.462;2024-02-14T02:13:33;100218.44;;;-11.66;73.42
66385;BME280;53426;55.872;37.462;2024-02-14T02:16:20;100230.38;;;-11.65;73.08
66385;BME280;53426;55.872;37.462;2024-02-14T02:19:08;100218.44;;;-11.68;73.27
66385;BME280;53426;55.872;37.462;2024-02-14T02:22:09;99889.06;;;-13.50;73.40
66385;BME280;53426;55.872;37.462;2024-02-14T02:25:03;100205.66;;;-11.69;73.37
66385;BME280;53426;55.872;37.462;2024-02-14T02:27:52;99868.78;;;-13.90;73.18
66385;BME280;53426;55.872;37.462;2024-02-14T02:30:59;100069.16;;;-12.47;73.34
66385;BME280;53426;55.872;37.462;2024-02-14T02:33:29;99982.34;;;-13.05;73.38
66385;BME280;53426;55.872;37.462;2024-02-14T02:35:59;99940.47;;;-13.69;73.28
66385;BME280;53426;55.872;37.462;2024-02-14T02:39:13;100218.22;;;-11.84;73.39
66385;BME280;53426;55.872;37.462;2024-02-14T02:42:07;100236.09;;;-11.84;73.02
66385;BME280;53426;55.872;37.462;2024-02-14T02:45:11;100252.28;;;-11.84;73.52
66385;BME280;53426;55.872;37.462;2024-02-14T03:08:58;100295.56;;;-11.89;73.28
66385;BME280;53426;55.872;37.462;2024-02-14T03:12:47;100266.63;;;-11.91;72.89
66385;BME280;53426;55.872;37.462;2024-02-14T03:15:56;99924.13;;;-13.82;73.21
66385;BME280;53426;55.872;37.462;2024-02-14T03:18:41;100219.53;;;-12.06;73.23
66385;BME280;53426;55.872;37.462;2024-02-14T03:21:15;100246.31;;;-11.83;73.52
66385;BME280;53426;55.872;37.462;2024-02-14T03:24:11;100272.59;;;-11.89;72.85
66385;BME280;53426;55.872;37.462;2024-02-14T03:26:39;100282.84;;;-11.87;72.96
66385;BME280;53426;55.872;37.462;2024-02-14T03:29:06;100080.81;;;-13.07;73.18
66385;BME280;53426;55.872;37.462;2024-02-14T03:32:52;100119.00;;;-12.65;72.81
66385;BME280;53426;55.872;37.462;2024-02-14T03:35:45;100270.75;;;-11.97;72.99
66385;BME280;53426;55.872;37.462;2024-02-14T03:38:35;100067.41;;;-13.44;72.44
66385;BME280;53426;55.872;37.462;2024-02-14T03:41:15;100257.88;;;-12.03;72.85
66385;BME280;53426;55.872;37.462;2024-02-14T03:43:42;100081.16;;;-13.36;72.85
66385;BME280;53426;55.872;37.462;2024-02-14T03:46:27;100309.56;;;-12.16;73.26
66385;BME280;53426;55.872;37.462;2024-02-14T03:49:01;100278.09;;;-12.14;73.52
66385;BME280;53426;55.872;37.462;2024-02-14T03:51:30;99955.81;;;-14.07;73.04
66385;BME280;53426;55.872;37.462;2024-02-14T03:54:04;100272.09;;;-12.17;73.38
66385;BME280;53426;55.872;37.462;2024-02-14T03:56:34;100284.66;;;-12.26;73.04
66385;BME280;53426;55.872;37.462;2024-02-14T03:59:05;100126.78;;;-13.03;73.47
66385;BME280;53426;55.872;37.462;2024-02-14T04:01:36;100209.56;;;-12.84;72.96
66385;BME280;53426;55.872;37.462;2024-02-14T04:04:06;100146.47;;;-12.96;73.43
66385;BME280;53426;55.872;37.462;2024-02-14T04:06:33;100277.91;;;-12.24;73.24
66385;BME280;53426;55.872;37.462;2024-02-14T04:12:59;100273.59;;;-12.28;73.70
66385;BME280;53426;55.872;37.462;2024-02-14T04:15:31;100074.06;;;-13.50;73.07
66385;BME280;53426;55.872;37.462;2024-02-14T04:18:21;100278.56;;;-12.35;73.36
66385;BME280;53426;55.872;37.462;2024-02-14T04:20:50;100141.03;;;-13.16;72.97
66385;BME280;53426;55.872;37.462;2024-02-14T04:23:30;100171.91;;;-12.97;73.07
66385;BME280;53426;55.872;37.462;2024-02-14T04:25:59;100275.97;;;-12.36;73.67
66385;BME280;53426;55.872;37.462;2024-02-14T04:28:28;100317.66;;;-12.36;73.16
66385;BME280;53426;55.872;37.462;2024-02-14T04:30:57;100111.72;;;-13.37;73.25
66385;BME280;53426;55.872;37.462;2024-02-14T04:33:32;100098.50;;;-13.60;73.07
66385;BME280;53426;55.872;37.462;2024-02-14T04:35:58;100311.66;;;-12.38;73.42
66385;BME280;53426;55.872;37.462;2024-02-14T04:38:29;100300.44;;;-12.46;73.58
66385;BME280;53426;55.872;37.462;2024-02-14T04:40:58;100065.72;;;-13.84;73.63
66385;BME280;53426;55.872;37.462;2024-02-14T04:43:58;100294.53;;;-12.45;72.80
66385;BME280;53426;55.872;37.462;2024-02-14T04:46:57;100322.31;;;-12.57;73.44
66385;BME280;53426;55.872;37.462;2024-02-14T04:49:28;100300.38;;;-12.49;72.77
66385;BME280;53426;55.872;37.462;2024-02-14T04:52:32;100291.03;;;-12.50;73.24
66385;BME280;53426;55.872;37.462;2024-02-14T04:55:31;100299.47;;;-12.52;73.47
66385;BME280;53426;55.872;37.462;2024-02-14T04:58:03;100301.13;;;-12.54;73.66
66385;BME280;53426;55.872;37.462;2024-02-14T05:00:58;100317.34;;;-12.51;73.01
66385;BME280;53426;55.872;37.462;2024-02-14T05:03:24;100046.94;;;-14.28;73.03
66385;BME280;53426;55.872;37.462;2024-02-14T05:10:13;100358.34;;;-12.42;72.55
66385;BME280;53426;55.872;37.462;2024-02-14T05:13:14;100328.66;;;-12.40;73.16
66385;BME280;53426;55.872;37.462;2024-02-14T05:22:05;100291.56;;;-12.64;73.01
66385;BME280;53426;55.872;37.462;2024-02-14T05:24:36;100233.66;;;-13.12;72.60
66385;BME280;53426;55.872;37.462;2024-02-14T05:27:05;100089.13;;;-14.00;72.30
66385;BME280;53426;55.872;37.462;2024-02-14T05:29:34;100339.16;;;-12.24;72.32
66385;BME280;53426;55.872;37.462;2024-02-14T05:32:05;100164.44;;;-13.33;72.29
66385;BME280;53426;55.872;37.462;2024-02-14T05:34:32;100151.22;;;-13.14;72.08
66385;BME280;53426;55.872;37.462;2024-02-14T05:36:58;100346.44;;;-11.99;72.21
66385;BME280;53426;55.872;37.462;2024-02-14T05:39:25;100296.66;;;-12.21;71.86
66385;BME280;53426;55.872;37.462;2024-02-14T05:41:52;100278.47;;;-12.39;71.02
66385;BME280;53426;55.872;37.462;2024-02-14T05:47:41;100241.47;;;-12.62;70.95
66385;BME280;53426;55.872;37.462;2024-02-14T05:50:13;100197.66;;;-12.85;70.67
66385;BME280;53426;55.872;37.462;2024-02-14T05:52:41;100230.94;;;-12.34;70.65
66385;BME280;53426;55.872;37.462;2024-02-14T05:55:07;100346.09;;;-11.71;70.41
66385;BME280;53426;55.872;37.462;2024-02-14T05:57:50;100363.94;;;-11.24;69.86
66385;BME280;53426;55.872;37.462;2024-02-14T06:00:20;100339.44;;;-11.10;69.83
66385;BME280;53426;55.872;37.462;2024-02-14T06:02:47;100348.25;;;-10.90;68.34
66385;BME280;53426;55.872;37.462;2024-02-14T06:05:22;100352.06;;;-10.62;68.13
66385;BME280;53426;55.872;37.462;2024-02-14T06:07:49;100334.91;;;-10.71;67.52
66385;BME280;53426;55.872;37.462;2024-02-14T06:10:20;100351.56;;;-10.37;67.91
66385;BME280;53426;55.872;37.462;2024-02-14T06:12:54;100366.13;;;-10.33;67.50
66385;BME280;53426;55.872;37.462;2024-02-14T06:15:20;100362.03;;;-10.20;66.59
66385;BME280;53426;55.872;37.462;2024-02-14T06:33:24;100193.22;;;-9.99;62.53
66385;BME280;53426;55.872;37.462;2024-02-14T06:42:37;100222.59;;;-9.53;60.48
66385;BME280;53426;55.872;37.462;2024-02-14T07:03:03;100204.16;;;-9.00;59.47
66385;BME280;53426;55.872;37.462;2024-02-14T07:05:31;100349.25;;;-7.81;57.54
66385;BME280;53426;55.872;37.462;2024-02-14T07:14:19;100129.91;;;-8.09;56.16
66385;BME280;53426;55.872;37.462;2024-02-14T07:16:46;100238.63;;;-6.83;55.99
66385;BME280;53426;55.872;37.462;2024-02-14T07:19:33;100367.78;;;-5.65;53.63
66385;BME280;53426;55.872;37.462;2024-02-14T07:22:08;100213.69;;;-6.73;52.30
66385;BME280;53426;55.872;37.462;2024-02-14T07:24:46;100221.13;;;-6.15;52.42
66385;BME280;53426;55.872;37.462;2024-02-14T07:27:15;100231.13;;;-5.68;51.75
66385;BME280;53426;55.872;37.462;2024-02-14T07:38:56;100370.88;;;-5.10;51.76
66385;BME280;53426;55.872;37.462;2024-02-14T08:12:21;100265.28;;;-7.35;52.24
66385;BME280;53426;55.872;37.462;2024-02-14T08:14:55;100395.63;;;-6.49;52.79
66385;BME280;53426;55.872;37.462;2024-02-14T08:17:32;100400.78;;;-6.57;53.04
66385;BME280;53426;55.872;37.462;2024-02-14T08:19:59;100412.81;;;-6.83;53.41
66385;BME280;53426;55.872;37.462;2024-02-14T08:28:20;100281.56;;;-7.59;53.90
66385;BME280;53426;55.872;37.462;2024-02-14T08:34:29;100195.03;;;-7.69;54.23
66385;BME280;53426;55.872;37.462;2024-02-14T08:37:06;100416.22;;;-6.54;53.91
66385;BME280;53426;55.872;37.462;2024-02-14T08:43:10;100420.53;;;-6.50;54.18
66385;BME280;53426;55.872;37.462;2024-02-14T08:45:40;100322.75;;;-7.04;54.42
66385;BME280;53426;55.872;37.462;2024-02-14T08:48:14;100357.88;;;-6.91;53.85
66385;BME280;53426;55.872;37.462;2024-02-14T08:50:41;100386.19;;;-6.64;54.18
66385;BME280;53426;55.872;37.462;2024-02-14T08:53:08;100389.63;;;-6.65;54.24
66385;BME280;53426;55.872;37.462;2024-02-14T08:55:35;100439.44;;;-6.66;54.92
66385;BME280;53426;55.872;37.462;2024-02-14T08:58:04;100376.78;;;-7.00;54.62
66385;BME280;53426;55.872;37.462;2024-02-14T09:00:30;100324.44;;;-7.35;55.09
66385;BME280;53426;55.872;37.462;2024-02-14T09:02:57;100410.22;;;-6.76;54.85
66385;BME280;53426;55.872;37.462;2024-02-14T09:05:28;100398.19;;;-6.46;54.79
66385;BME280;53426;55.872;37.462;2024-02-14T09:07:56;100419.63;;;-6.24;54.33
66385;BME280;53426;55.872;37.462;2024-02-14T09:10:38;100264.38;;;-6.93;54.33
66385;BME280;53426;55.872;37.462;2024-02-14T09:13:43;100238.59;;;-6.77;54.29
66385;BME280;53426;55.872;37.462;2024-02-14T09:16:11;100249.75;;;-6.79;53.71
66385;BME280;53426;55.872;37.462;2024-02-14T09:18:37;100398.84;;;-5.86;54.03
66385;BME280;53426;55.872;37.462;2024-02-14T09:21:06;100336.28;;;-6.26;53.66
66385;BME280;53426;55.872;37.462;2024-02-14T09:23:40;100222.34;;;-7.00;53.27
66385;BME280;53426;55.872;37.462;2024-02-14T09:26:10;100406.63;;;-5.91;53.78
66385;BME280;53426;55.872;37.462;2024-02-14T09:28:41;100260.94;;;-6.95;53.87
66385;BME280;53426;55.872;37.462;2024-02-14T09:31:16;100322.63;;;-6.44;54.19
66385;BME280;53426;55.872;37.462;2024-02-14T09:33:47;100289.13;;;-6.48;53.46
66385;BME280;53426;55.872;37.462;2024-02-14T09:36:30;100236.91;;;-6.91;52.46
66385;BME280;53426;55.872;37.462;2024-02-14T09:45:38;100271.09;;;-6.41;52.09
66385;BME280;53426;55.872;37.462;2024-02-14T09:48:10;100409.72;;;-5.28;52.70
66385;BME280;53426;55.872;37.462;2024-02-14T09:50:48;100308.78;;;-6.18;52.45
66385;BME280;53426;55.872;37.462;2024-02-14T09:53:21;100170.09;;;-7.28;52.68
66385;BME280;53426;55.872;37.462;2024-02-14T09:55:52;100338.03;;;-6.38;52.37
66385;BME280;53426;55.872;37.462;2024-02-14T09:58:29;100208.66;;;-7.11;52.32
66385;BME280;53426;55.872;37.462;2024-02-14T10:01:10;100424.50;;;-5.58;52.86
66385;BME280;53426;55.872;37.462;2024-02-14T10:03:40;100236.09;;;-7.05;52.68
66385;BME280;53426;55.872;37.462;2024-02-14T10:06:10;100435.66;;;-5.56;52.76
66385;BME280;53426;55.872;37.462;2024-02-14T10:08:40;100366.28;;;-6.01;53.29
66385;BME280;53426;55.872;37.462;2024-02-14T10:11:16;100384.06;;;-5.56;52.94
66385;BME280;53426;55.872;37.462;2024-02-14T10:14:40;100411.38;;;-5.15;52.47
66385;BME280;53426;55.872;37.462;2024-02-14T10:17:28;100376.19;;;-5.30;52.13
66385;BME280;53426;55.872;37.462;2024-02-14T10:20:02;100417.16;;;-4.81;51.97
66385;BME280;53426;55.872;37.462;2024-02-14T10:23:02;100408.72;;;-5.06;52.47
66385;BME280;53426;55.872;37.462;2024-02-14T10:26:18;100377.84;;;-5.21;51.74
66385;BME280;53426;55.872;37.462;2024-02-14T10:31:45;100442.47;;;-5.39;52.10
66385;BME280;53426;55.872;37.462;2024-02-14T10:34:30;100246.25;;;-6.58;52.55
66385;BME280;53426;55.872;37.462;2024-02-14T10:40:35;100326.81;;;-6.12;52.57
66385;BME280;53426;55.872;37.462;2024-02-14T10:48:54;100410.53;;;-5.20;52.92
66385;BME280;53426;55.872;37.462;2024-02-14T10:51:52;100414.13;;;-5.50;53.48
66385;BME280;53426;55.872;37.462;2024-02-14T10:54:39;100383.19;;;-5.49;53.10
66385;BME280;53426;55.872;37.462;2024-02-14T10:57:09;100415.75;;;-5.28;52.90
66385;BME280;53426;55.872;37.462;2024-02-14T11:02:43;100341.47;;;-6.32;52.92
66385;BME280;53426;55.872;37.462;2024-02-14T11:12:10;100409.28;;;-6.06;54.33
66385;BME280;53426;55.872;37.462;2024-02-14T11:14:48;100416.97;;;-5.99;54.02
66385;BME280;53426;55.872;37.462;2024-02-14T11:17:24;100411.03;;;-6.17;54.30
66385;BME280;53426;55.872;37.462;2024-02-14T11:19:53;100388.63;;;-6.03;54.23
66385;BME280;53426;55.872;37.462;2024-02-14T11:22:21;100305.47;;;-6.58;53.88
66385;BME280;53426;55.872;37.462;2024-02-14T11:24:48;100408.44;;;-6.20;53.68
66385;BME280;53426;55.872;37.462;2024-02-14T11:27:18;100431.50;;;-5.81;54.23
66385;BME280;53426;55.872;37.462;2024-02-14T11:30:08;100405.81;;;-6.05;53.69
66385;BME280;53426;55.872;37.462;2024-02-14T11:32:39;100303.00;;;-6.89;54.45
66385;BME280;53426;55.872;37.462;2024-02-14T11:35:11;100348.41;;;-6.63;54.52
66385;BME280;53426;55.872;37.462;2024-02-14T11:37:38;100422.09;;;-5.94;54.32
66385;BME280;53426;55.872;37.462;2024-02-14T11:40:09;100404.84;;;-5.80;54.78
66385;BME280;53426;55.872;37.462;2024-02-14T11:42:35;100423.78;;;-5.85;54.31
66385;BME280;53426;55.872;37.462;2024-02-14T11:45:02;100437.59;;;-5.97;54.25
66385;BME280;53426;55.872;37.462;2024-02-14T11:47:30;100417.00;;;-6.06;54.42
66385;BME280;53426;55.872;37.462;2024-02-14T11:50:01;100418.78;;;-6.22;54.35
66385;BME280;53426;55.872;37.462;2024-02-14T11:52:30;100435.94;;;-6.31;55.19
66385;BME280;53426;55.872;37.462;2024-02-14T11:54:56;100413.66;;;-6.39;55.37
66385;BME280;53426;55.872;37.462;2024-02-14T11:57:23;100417.94;;;-6.35;54.88
66385;BME280;53426;55.872;37.462;2024-02-14T11:59:49;100362.16;;;-6.69;55.65
66385;BME280;53426;55.872;37.462;2024-02-14T12:02:18;100422.22;;;-6.40;55.30
66385;BME280;53426;55.872;37.462;2024-02-14T12:04:47;100369.03;;;-6.68;55.25
66385;BME280;53426;55.872;37.462;2024-02-14T12:07:14;100410.19;;;-6.42;55.59
66385;BME280;53426;55.872;37.462;2024-02-14T12:09:41;100429.94;;;-6.49;55.41
66385;BME280;53426;55.872;37.462;2024-02-14T12:12:08;100351.88;;;-6.87;55.22
66385;BME280;53426;55.872;37.462;2024-02-14T12:14:35;100409.34;;;-6.40;55.46
66385;BME280;53426;55.872;37.462;2024-02-14T12:17:01;100286.72;;;-7.41;55.11
66385;BME280;53426;55.872;37.462;2024-02-14T12:19:37;100456.56;;;-6.65;55.39
66385;BME280;53426;55.872;37.462;2024-02-14T12:22:10;100427.41;;;-6.78;55.60
66385;BME280;53426;55.872;37.462;2024-02-14T12:24:56;100306.44;;;-7.53;55.77
66385;BME280;53426;55.872;37.462;2024-02-14T12:27:23;100400.81;;;-6.78;56.26
66385;BME280;53426;55.872;37.462;2024-02-14T12:30:09;100277.31;;;-7.48;56.00
66385;BME280;53426;55.872;37.462;2024-02-14T12:33:00;100304.72;;;-7.61;55.77
66385;BME280;53426;55.872;37.462;2024-02-14T12:35:34;100411.97;;;-6.71;56.99
66385;BME280;53426;55.872;37.462;2024-02-14T12:38:11;100470.31;;;-6.69;56.68
66385;BME280;53426;55.872;37.462;2024-02-14T12:40:38;100418.81;;;-6.75;56.70
66385;BME280;53426;55.872;37.462;2024-02-14T12:43:13;100431.69;;;-6.80;56.60
66385;BME280;53426;55.872;37.462;2024-02-14T12:45:43;100366.47;;;-7.30;56.52
66385;BME280;53426;55.872;37.462;2024-02-14T12:48:12;100369.03;;;-7.20;56.76
66385;BME280;53426;55.872;37.462;2024-02-14T12:50:42;100371.63;;;-7.13;57.23
66385;BME280;53426;55.872;37.462;2024-02-14T12:53:19;100308.16;;;-7.49;56.69
66385;BME280;53426;55.872;37.462;2024-02-14T12:55:46;100355.31;;;-7.28;56.75
66385;BME280;53426;55.872;37.462;2024-02-14T12:58:28;100463.44;;;-6.91;57.61
66385;BME280;53426;55.872;37.462;2024-02-14T13:00:56;100375.94;;;-7.09;57.61
66385;BME280;53426;55.872;37.462;2024-02-14T13:03:24;100438.56;;;-6.72;57.46
66385;BME280;53426;55.872;37.462;2024-02-14T13:05:58;100311.59;;;-7.44;57.73
66385;BME280;53426;55.872;37.462;2024-02-14T13:08:28;100386.22;;;-7.02;58.31
66385;BME280;53426;55.872;37.462;2024-02-14T13:10:54;100397.34;;;-6.69;57.87
66385;BME280;53426;55.872;37.462;2024-02-14T13:13:20;100354.47;;;-6.89;58.08
66385;BME280;53426;55.872;37.462;2024-02-14T13:15:46;100410.25;;;-6.77;57.78
66385;BME280;53426;55.872;37.462;2024-02-14T13:18:13;100331.31;;;-7.45;57.95
66385;BME280;53426;55.872;37.462;2024-02-14T13:20:41;100444.56;;;-6.87;58.56
66385;BME280;53426;55.872;37.462;2024-02-14T13:23:07;100443.69;;;-6.92;58.70
66385;BME280;53426;55.872;37.462;2024-02-14T13:25:40;100280.69;;;-7.78;58.64
66385;BME280;53426;55.872;37.462;2024-02-14T13:28:32;100425.69;;;-6.72;59.18
66385;BME280;53426;55.872;37.462;2024-02-14T13:30:58;100276.38;;;-7.85;58.80
66385;BME280;53426;55.872;37.462;2024-02-14T13:33:26;100464.31;;;-6.88;58.80
66385;BME280;53426;55.872;37.462;2024-02-14T13:35:52;100447.16;;;-6.93;59.04
66385;BME280;53426;55.872;37.462;2024-02-14T13:38:19;100349.31;;;-7.39;58.84
66385;BME280;53426;55.872;37.462;2024-02-14T13:40:45;100419.69;;;-7.09;59.80
66385;BME280;53426;55.872;37.462;2024-02-14T13:43:11;100397.38;;;-7.04;59.27
66385;BME280;53426;55.872;37.462;2024-02-14T13:45:42;100351.88;;;-7.43;59.52
66385;BME280;53426;55.872;37.462;2024-02-14T13:48:11;100443.69;;;-7.03;59.33
66385;BME280;53426;55.872;37.462;2024-02-14T13:50:37;100369.88;;;-7.51;59.57
66385;BME280;53426;55.872;37.462;2024-02-14T13:53:40;100447.97;;;-7.17;60.33
66385;BME280;53426;55.872;37.462;2024-02-14T13:56:06;100456.53;;;-7.16;59.83
66385;BME280;53426;55.872;37.462;2024-02-14T13:58:34;100378.41;;;-7.66;60.02
66385;BME280;53426;55.872;37.462;2024-02-14T14:01:00;100394.72;;;-7.50;59.85
66385;BME280;53426;55.872;37.462;2024-02-14T14:03:27;100429.91;;;-7.34;60.01
66385;BME280;53426;55.872;37.462;2024-02-14T14:05:56;100240.28;;;-8.52;59.94
66385;BME280;53426;55.872;37.462;2024-02-14T14:08:23;100244.63;;;-8.40;59.97
66385;BME280;53426;55.872;37.462;2024-02-14T14:10:49;100399.00;;;-7.59;60.26
66385;BME280;53426;55.872;37.462;2024-02-14T14:13:18;100339.78;;;-7.91;60.51
66385;BME280;53426;55.872;37.462;2024-02-14T14:15:44;100433.34;;;-7.29;60.30
66385;BME280;53426;55.872;37.462;2024-02-14T14:18:16;100445.34;;;-7.29;60.84
66385;BME280;53426;55.872;37.462;2024-02-14T14:21:08;100447.94;;;-7.32;61.13
66385;BME280;53426;55.872;37.462;2024-02-14T14:23:37;100471.97;;;-7.26;60.87
66385;BME280;53426;55.872;37.462;2024-02-14T14:26:09;100473.66;;;-7.28;61.11
66385;BME280;53426;55.872;37.462;2024-02-14T14:28:36;100459.94;;;-7.24;61.53
66385;BME280;53426;55.872;37.462;2024-02-14T14:31:02;100477.94;;;-7.34;61.13
66385;BME280;53426;55.872;37.462;2024-02-14T14:36:47;100368.88;;;-7.98;61.48
66385;BME280;53426;55.872;37.462;2024-02-14T14:39:13;100377.41;;;-8.01;61.69
66385;BME280;53426;55.872;37.462;2024-02-14T14:42:06;100454.72;;;-7.54;61.77
66385;BME280;53426;55.872;37.462;2024-02-14T14:44:40;100407.31;;;-8.21;62.04
66385;BME280;53426;55.872;37.462;2024-02-14T14:47:07;100449.47;;;-7.81;61.70
66385;BME280;53426;55.872;37.462;2024-02-14T14:49:38;100294.03;;;-8.77;61.97
66385;BME280;53426;55.872;37.462;2024-02-14T14:52:07;100376.53;;;-8.11;62.32
66385;BME280;53426;55.872;37.462;2024-02-14T14:54:34;100464.09;;;-7.64;62.42
66385;BME280;53426;55.872;37.462;2024-02-14T14:57:00;100332.69;;;-8.50;62.27
66385;BME280;53426;55.872;37.462;2024-02-14T14:59:29;100406.56;;;-8.02;62.38
66385;BME280;53426;55.872;37.462;2024-02-14T15:01:55;100343.88;;;-8.43;62.29
66385;BME280;53426;55.872;37.462;2024-02-14T15:04:22;100360.19;;;-8.37;62.76
66385;BME280;53426;55.872;37.462;2024-02-14T15:06:54;100293.09;;;-8.98;62.86
66385;BME280;53426;55.872;37.462;2024-02-14T15:09:27;100470.84;;;-7.88;62.93
66385;BME280;53426;55.872;37.462;2024-02-14T15:11:55;100420.13;;;-8.27;63.01
66385;BME280;53426;55.872;37.462;2024-02-14T15:14:22;100465.72;;;-7.88;63.29
66385;BME280;53426;55.872;37.462;2024-02-14T15:16:48;100444.22;;;-8.09;62.75
66385;BME280;53426;55.872;37.462;2024-02-14T15:19:15;100476.84;;;-7.89;63.65
66385;BME280;53426;55.872;37.462;2024-02-14T15:21:42;100490.53;;;-7.90;63.23
66385;BME280;53426;55.872;37.462;2024-02-14T15:24:08;100495.63;;;-8.02;63.24
66385;BME280;53426;55.872;37.462;2024-02-14T15:26:34;100432.97;;;-8.23;63.73
66385;BME280;53426;55.872;37.462;2024-02-14T15:29:18;100493.09;;;-7.98;63.13
66385;BME280;53426;55.872;37.462;2024-02-14T15:50:54;100340.00;;;-9.11;63.94
66385;BME280;53426;55.872;37.462;2024-02-14T15:56:08;100376.16;;;-8.80;64.20
66385;BME280;53426;55.872;37.462;2024-02-14T15:58:38;100520.44;;;-8.06;63.79
66385;BME280;53426;55.872;37.462;2024-02-14T16:01:39;100493.06;;;-7.99;64.62
66385;BME280;53426;55.872;37.462;2024-02-14T16:04:11;100362.44;;;-8.85;64.28
66385;BME280;53426;55.872;37.462;2024-02-14T16:06:38;100506.78;;;-7.96;64.27
66385;BME280;53426;55.872;37.462;2024-02-14T16:09:05;100422.50;;;-8.59;64.22
66385;BME280;53426;55.872;37.462;2024-02-14T16:23:13;100394.72;;;-9.13;63.78
66385;BME280;53426;55.872;37.462;2024-02-14T16:25:39;100453.88;;;-8.97;64.65
66385;BME280;53426;55.872;37.462;2024-02-14T16:28:05;100304.41;;;-9.77;63.98
66385;BME280;53426;55.872;37.462;2024-02-14T16:30:32;100544.19;;;-8.42;64.08
66385;BME280;53426;55.872;37.462;2024-02-14T16:33:07;100530.59;;;-8.26;64.41
66385;BME280;53426;55.872;37.462;2024-02-14T16:35:56;100539.13;;;-8.33;64.49
66385;BME280;53426;55.872;37.462;2024-02-14T16:38:49;100294.69;;;-10.07;64.13
66385;BME280;53426;55.872;37.462;2024-02-14T16:41:15;100483.13;;;-8.76;64.56
66385;BME280;53426;55.872;37.462;2024-02-14T16:43:54;100433.31;;;-9.01;64.11
66385;BME280;53426;55.872;37.462;2024-02-14T16:46:20;100402.38;;;-9.18;64.65
66385;BME280;53426;55.872;37.462;2024-02-14T16:48:46;100528.78;;;-8.39;64.65